Time;durP1;ratioP1;P1;durP2;ratioP2;P2;SDS_P1;SDS_P2;PMS_P1;PMS_P2;Temp;Humidity;BMP_temperature;BMP_pressure;BME280_temperature;BME280_humidity;BME280_pressure;Samples;Min_cycle;Max_cycle;Signal;HPM_P1;HPM_P2
2022/08/30 00:01:02;;;;;;;1.77;1.50;;;;;;;18.65;49.00;99163.31;5116173;27;41207;-81
2022/08/30 00:03:31;;;;;;;1.77;1.40;;;;;;;18.63;49.16;99170.66;5133938;27;42460;-83
2022/08/30 00:05:58;;;;;;;2.30;1.27;;;;;;;18.46;49.05;99136.41;5133735;27;41366;-82
2022/08/30 00:08:26;;;;;;;5.13;1.50;;;;;;;18.58;49.23;99164.84;5132939;27;41313;-78
2022/08/30 00:10:54;;;;;;;2.53;1.60;;;;;;;18.56;49.03;99156.06;5133050;27;41467;-79
2022/08/30 00:13:24;;;;;;;2.00;1.70;;;;;;;18.50;49.22;99152.09;5115904;27;42132;-80
2022/08/30 00:15:52;;;;;;;2.40;1.27;;;;;;;18.50;49.55;99161.97;5133501;27;42951;-82
2022/08/30 00:18:21;;;;;;;2.30;1.60;;;;;;;18.49;49.86;99160.28;5133313;27;42210;-82
2022/08/30 00:20:50;;;;;;;3.07;1.60;;;;;;;18.46;49.76;99160.56;5116701;27;39435;-84
2022/08/30 00:23:18;;;;;;;1.77;1.40;;;;;;;18.41;49.89;99157.47;5115754;27;42639;-84
2022/08/30 00:25:46;;;;;;;2.13;1.80;;;;;;;18.41;50.17;99163.66;5133490;27;42620;-77
2022/08/30 00:28:15;;;;;;;4.17;1.70;;;;;;;18.39;49.82;99167.47;5133003;27;42833;-77
2022/08/30 00:30:46;;;;;;;2.47;1.77;;;;;;;18.37;49.97;99166.75;5134759;27;39931;-78
2022/08/30 00:33:14;;;;;;;2.43;1.43;;;;;;;18.22;50.11;99144.84;5115571;27;43293;-79
2022/08/30 00:35:43;;;;;;;1.57;1.30;;;;;;;18.09;50.39;99129.00;5116159;27;42879;-81
2022/08/30 00:38:12;;;;;;;3.20;1.70;;;;;;;18.16;50.94;99140.88;5132693;27;41175;-79
2022/08/30 00:40:43;;;;;;;2.50;1.67;;;;;;;18.22;51.17;99159.09;5133430;27;40237;-79
2022/08/30 00:43:14;;;;;;;2.87;1.60;;;;;;;18.20;51.58;99158.38;5133699;27;41745;-80
2022/08/30 00:45:44;;;;;;;5.93;1.90;;;;;;;18.17;51.15;99161.34;5133311;27;43030;-84
2022/08/30 00:48:12;;;;;;;3.03;1.80;;;;;;;18.14;50.92;99160.75;5134171;27;43179;-78
2022/08/30 00:50:43;;;;;;;2.60;1.47;;;;;;;18.09;51.25;99158.47;5133275;27;40134;-82
2022/08/30 00:53:16;;;;;;;1.67;1.47;;;;;;;18.06;51.36;99165.94;5115744;27;42601;-80
2022/08/30 00:55:45;;;;;;;3.53;1.30;;;;;;;18.04;51.23;99165.25;5115999;27;43471;-77
2022/08/30 00:58:20;;;;;;;4.23;1.50;;;;;;;17.87;51.90;99150.66;5114830;27;41346;-82
2022/08/30 01:00:52;;;;;;;4.10;1.90;;;;;;;17.97;52.54;99167.59;5131058;27;40984;-80
2022/08/30 01:03:19;;;;;;;2.47;1.60;;;;;;;17.95;52.44;99162.38;5116050;27;40430;-81
2022/08/30 01:05:50;;;;;;;1.37;1.20;;;;;;;17.93;52.17;99171.53;5132890;27;42568;-81
2022/08/30 01:08:19;;;;;;;1.77;1.47;;;;;;;17.79;52.44;99140.63;5132465;27;42009;-84
2022/08/30 01:10:47;;;;;;;3.70;1.63;;;;;;;17.85;52.58;99158.81;5115625;27;39138;-81
2022/08/30 01:13:15;;;;;;;2.40;1.63;;;;;;;17.84;52.53;99164.31;5132816;27;41491;-79
2022/08/30 01:15:44;;;;;;;2.80;1.50;;;;;;;17.81;52.34;99172.59;5133918;27;42931;-80
2022/08/30 01:18:16;;;;;;;2.87;1.70;;;;;;;17.76;52.52;99173.03;5132583;27;41309;-78
2022/08/30 01:20:50;;;;;;;2.07;1.50;;;;;;;17.72;52.04;99176.09;5130987;27;40924;-77
2022/08/30 01:23:22;;;;;;;1.80;1.13;;;;;;;17.59;52.07;99163.72;5131674;27;43924;-79
2022/08/30 01:25:51;;;;;;;1.67;1.57;;;;;;;17.62;52.09;99175.16;5129736;27;42979;-78
2022/08/30 01:28:23;;;;;;;2.47;1.30;;;;;;;17.55;52.37;99178.38;5115005;27;41370;-82
2022/08/30 01:30:52;;;;;;;4.07;1.63;;;;;;;17.43;52.68;99166.00;5130911;27;40006;-81
2022/08/30 01:33:20;;;;;;;2.80;1.30;;;;;;;17.44;52.50;99173.06;5133315;27;41756;-80
2022/08/30 01:35:52;;;;;;;1.70;1.50;;;;;;;17.39;52.37;99164.59;5132707;27;41904;-82
2022/08/30 01:38:25;;;;;;;1.40;1.30;;;;;;;17.34;52.99;99161.47;5132091;27;40561;-80
2022/08/30 01:40:58;;;;;;;1.80;1.30;;;;;;;17.29;53.16;99168.19;5115556;27;38390;-79
2022/08/30 01:43:26;;;;;;;2.50;1.53;;;;;;;17.22;52.79;99173.22;5115214;27;40784;-79
2022/08/30 01:45:54;;;;;;;1.47;1.20;;;;;;;17.17;53.22;99170.09;5115061;27;44815;-79
2022/08/30 01:48:22;;;;;;;2.20;1.40;;;;;;;17.08;53.09;99160.13;5131984;27;42333;-79
2022/08/30 01:50:49;;;;;;;1.93;1.23;;;;;;;17.07;54.26;99158.44;5114979;27;41784;-81
2022/08/30 01:53:17;;;;;;;2.23;1.60;;;;;;;16.97;53.87;99155.69;5114468;27;41620;-81
2022/08/30 01:55:47;;;;;;;1.77;1.53;;;;;;;17.01;54.10;99177.69;5115115;27;43187;-83
2022/08/30 01:58:15;;;;;;;2.50;1.53;;;;;;;16.97;53.62;99176.25;5114514;27;41273;-81
2022/08/30 02:00:42;;;;;;;2.17;1.57;;;;;;;16.85;53.51;99165.59;5114776;27;39152;-80
2022/08/30 02:03:10;;;;;;;2.30;1.50;;;;;;;16.79;53.73;99160.78;5133059;27;42612;-84
2022/08/30 02:05:37;;;;;;;2.30;1.70;;;;;;;16.86;53.82;99172.66;5132124;27;43487;-81
2022/08/30 02:08:05;;;;;;;2.50;1.50;;;;;;;16.82;54.07;99171.19;5131854;27;42097;-81
2022/08/30 02:10:33;;;;;;;1.80;1.27;;;;;;;16.80;54.01;99173.19;5131961;27;41137;-80
2022/08/30 02:13:03;;;;;;;2.47;1.43;;;;;;;16.77;54.70;99162.72;5132637;27;42760;-83
2022/08/30 02:15:30;;;;;;;3.30;1.50;;;;;;;16.51;55.03;99123.88;5133381;27;42804;-81
2022/08/30 02:17:58;;;;;;;1.97;1.40;;;;;;;16.73;54.87;99161.25;5131560;27;42122;-78
2022/08/30 02:20:25;;;;;;;2.63;1.60;;;;;;;16.69;55.44;99154.47;5131805;27;42128;-79
2022/08/30 02:22:53;;;;;;;1.93;1.63;;;;;;;16.66;55.51;99162.75;5132601;27;42430;-78
2022/08/30 02:25:21;;;;;;;2.33;1.60;;;;;;;16.63;55.30;99162.16;5114924;27;41532;-77
2022/08/30 02:27:49;;;;;;;2.37;1.43;;;;;;;16.59;55.43;99158.84;5131616;27;42372;-80
2022/08/30 02:30:18;;;;;;;2.80;1.57;;;;;;;16.55;55.49;99162.78;5114858;27;40381;-79
2022/08/30 02:32:45;;;;;;;1.80;1.53;;;;;;;16.53;55.31;99164.72;5131585;27;41573;-81
2022/08/30 02:35:13;;;;;;;1.97;1.40;;;;;;;16.40;54.93;99154.19;5116086;27;41700;-81
2022/08/30 02:37:41;;;;;;;3.33;1.40;;;;;;;16.45;55.11;99168.00;5117276;27;43384;-76
2022/08/30 02:40:10;;;;;;;2.87;1.90;;;;;;;16.42;55.46;99167.41;5136123;27;41000;-80
2022/08/30 02:42:38;;;;;;;1.63;1.47;;;;;;;16.32;55.63;99145.09;5135134;27;41824;-80
2022/08/30 02:45:06;;;;;;;2.33;1.87;;;;;;;16.35;56.67;99151.00;5134769;27;44038;-82
2022/08/30 02:47:36;;;;;;;2.53;1.37;;;;;;;16.24;56.52;99132.34;5134844;27;41275;-82
2022/08/30 02:50:05;;;;;;;2.80;1.40;;;;;;;16.34;56.48;99148.47;5135083;27;38895;-80
2022/08/30 02:52:32;;;;;;;2.63;1.80;;;;;;;16.32;56.57;99150.44;5134982;27;41780;-84
2022/08/30 02:55:00;;;;;;;1.83;1.20;;;;;;;16.28;56.83;99143.63;5117456;27;43354;-79
2022/08/30 02:57:28;;;;;;;1.70;1.30;;;;;;;16.28;56.40;99140.97;5116644;27;41941;-79
2022/08/30 02:59:56;;;;;;;2.77;1.57;;;;;;;16.24;56.35;99143.03;5135110;27;39936;-76
2022/08/30 03:02:25;;;;;;;1.53;1.20;;;;;;;16.20;56.53;99146.91;5134244;27;41571;-78
2022/08/30 03:04:54;;;;;;;2.73;1.80;;;;;;;16.15;56.78;99147.28;5134819;27;43802;-79
2022/08/30 03:07:22;;;;;;;3.43;1.67;;;;;;;16.12;56.81;99144.88;5134521;27;41816;-80
2022/08/30 03:09:50;;;;;;;2.10;1.43;;;;;;;16.06;56.41;99148.03;5135227;27;39849;-78
2022/08/30 03:12:17;;;;;;;2.07;1.53;;;;;;;15.96;56.92;99144.38;5135113;27;42705;-78
2022/08/30 03:14:45;;;;;;;1.77;1.50;;;;;;;15.96;56.90;99157.75;5134982;27;42704;-80
2022/08/30 03:17:13;;;;;;;3.53;1.87;;;;;;;15.93;57.02;99166.03;5135787;27;42230;-80
2022/08/30 03:19:40;;;;;;;1.73;1.50;;;;;;;15.90;57.26;99170.75;5134636;27;40084;-76
2022/08/30 03:22:10;;;;;;;1.93;1.47;;;;;;;15.85;57.11;99164.91;5134468;27;40733;-81
2022/08/30 03:24:37;;;;;;;3.63;2.00;;;;;;;15.81;57.46;99161.66;5135483;27;42797;-79
2022/08/30 03:27:06;;;;;;;2.07;1.57;;;;;;;15.77;57.93;99154.84;5133684;27;42280;-82
2022/08/30 03:29:33;;;;;;;1.83;1.30;;;;;;;15.78;58.54;99151.22;5134703;27;41145;-79
2022/08/30 03:32:01;;;;;;;2.50;1.87;;;;;;;15.76;59.14;99148.66;5134355;27;41873;-81
2022/08/30 03:34:29;;;;;;;3.07;2.00;;;;;;;15.74;59.36;99147.06;5134454;27;41652;-81
2022/08/30 03:37:00;;;;;;;3.73;1.77;;;;;;;15.72;58.75;99155.19;5117132;27;41331;-79
2022/08/30 03:39:29;;;;;;;2.97;1.90;;;;;;;15.72;58.44;99157.03;5117247;27;40100;-82
2022/08/30 03:41:56;;;;;;;2.30;1.30;;;;;;;15.71;58.70;99153.50;5133935;27;40550;-78
2022/08/30 03:44:24;;;;;;;3.50;1.77;;;;;;;15.66;58.18;99146.84;5134199;27;43748;-82
2022/08/30 03:46:52;;;;;;;1.60;1.40;;;;;;;15.56;58.12;99140.53;5134971;27;43436;-82
2022/08/30 03:49:21;;;;;;;3.30;1.83;;;;;;;15.66;58.19;99160.19;5135377;27;40016;-77
2022/08/30 03:51:49;;;;;;;2.03;1.43;;;;;;;15.63;58.33;99158.59;5116330;27;43995;-80
2022/08/30 03:54:18;;;;;;;2.10;1.60;;;;;;;15.40;57.99;99125.66;5133812;27;43344;-80
2022/08/30 03:56:47;;;;;;;1.67;1.57;;;;;;;15.55;58.00;99165.53;5133294;27;42010;-82
2022/08/30 03:59:15;;;;;;;2.07;1.33;;;;;;;15.57;58.30;99163.59;5116808;27;39124;-80
2022/08/30 04:01:44;;;;;;;3.23;1.63;;;;;;;15.55;58.41;99155.69;5133791;27;42437;-82
2022/08/30 04:04:12;;;;;;;2.00;1.73;;;;;;;15.51;58.48;99148.00;5116592;27;41707;-79
2022/08/30 04:06:40;;;;;;;2.43;1.50;;;;;;;15.51;58.31;99156.00;5116385;27;42652;-76
2022/08/30 04:09:08;;;;;;;2.10;1.53;;;;;;;15.49;58.63;99157.94;5133622;27;40053;-81
2022/08/30 04:11:36;;;;;;;1.60;1.20;;;;;;;15.46;58.56;99164.34;5133298;27;41753;-79
2022/08/30 04:14:05;;;;;;;2.40;1.60;;;;;;;15.43;58.69;99157.47;5133662;27;43727;-78
2022/08/30 04:16:33;;;;;;;2.37;1.70;;;;;;;15.41;58.63;99163.88;5115792;27;41188;-79
2022/08/30 04:19:01;;;;;;;1.60;1.30;;;;;;;15.39;58.82;99166.66;5133514;27;40199;-83
2022/08/30 04:21:29;;;;;;;2.23;1.27;;;;;;;15.37;58.56;99167.75;5116347;27;40643;-83
2022/08/30 04:23:57;;;;;;;2.00;1.73;;;;;;;15.33;58.45;99167.13;5133475;27;42193;-82
2022/08/30 04:26:25;;;;;;;2.73;1.40;;;;;;;15.31;58.31;99170.91;5133296;27;42242;-84
2022/08/30 04:28:53;;;;;;;2.50;2.10;;;;;;;15.21;58.59;99157.41;5135191;27;40030;-78
2022/08/30 04:31:23;;;;;;;1.77;1.50;;;;;;;15.25;58.82;99169.53;5133189;27;41450;-80
2022/08/30 04:33:51;;;;;;;1.70;1.33;;;;;;;15.23;59.00;99166.13;5133312;27;42847;-77
2022/08/30 04:36:18;;;;;;;2.00;1.40;;;;;;;15.21;58.91;99170.75;5133006;27;42935;-82
2022/08/30 04:38:46;;;;;;;2.53;1.60;;;;;;;15.20;59.34;99165.53;5133269;27;38914;-75
2022/08/30 04:41:18;;;;;;;2.53;1.60;;;;;;;15.19;59.12;99174.50;5115610;27;40780;-80
2022/08/30 04:43:47;;;;;;;3.17;1.40;;;;;;;15.18;59.47;99171.00;5130029;27;42446;-78
2022/08/30 04:46:15;;;;;;;2.80;1.87;;;;;;;15.15;59.50;99173.88;5132548;27;42367;-78
2022/08/30 04:48:45;;;;;;;2.13;1.50;;;;;;;15.15;59.46;99170.38;5117618;27;38760;-75
2022/08/30 04:51:15;;;;;;;1.70;1.23;;;;;;;15.15;59.55;99179.22;5115769;27;40776;-84
2022/08/30 04:53:44;;;;;;;2.77;1.77;;;;;;;15.13;59.62;99189.16;5115920;27;42250;-79
2022/08/30 04:56:15;;;;;;;5.00;1.97;;;;;;;15.14;59.81;99192.69;5133974;27;43232;-78
2022/08/30 04:58:43;;;;;;;2.57;1.70;;;;;;;15.14;59.56;99188.19;5132135;27;39932;-81
2022/08/30 05:01:13;;;;;;;2.63;1.63;;;;;;;15.15;60.17;99192.56;5132626;27;42004;-80
2022/08/30 05:03:41;;;;;;;2.10;1.50;;;;;;;15.19;60.35;99186.03;5115625;27;41923;-80
2022/08/30 05:06:13;;;;;;;4.70;1.90;;;;;;;15.24;61.62;99177.66;5132592;27;42076;-80
2022/08/30 05:08:41;;;;;;;2.07;1.77;;;;;;;15.30;61.07;99177.22;5130962;27;41115;-78
2022/08/30 05:11:09;;;;;;;3.50;1.70;;;;;;;15.37;60.56;99186.44;5132882;27;42046;-80
2022/08/30 05:13:37;;;;;;;2.87;1.80;;;;;;;15.42;61.00;99182.44;5115456;27;41768;-74
2022/08/30 05:16:07;;;;;;;4.57;2.00;;;;;;;15.50;60.78;99186.34;5132916;27;43284;-76
2022/08/30 05:18:36;;;;;;;3.50;1.87;;;;;;;15.56;61.31;99184.09;5133914;27;40451;-82
2022/08/30 05:21:06;;;;;;;2.17;1.53;;;;;;;15.59;60.89;99188.31;5132591;27;42009;-78
2022/08/30 05:23:35;;;;;;;2.93;1.83;;;;;;;15.71;60.77;99190.03;5133614;27;43514;-79
2022/08/30 05:26:06;;;;;;;3.37;1.80;;;;;;;15.66;60.33;99169.03;5132547;27;43294;-77
2022/08/30 05:28:34;;;;;;;2.40;1.63;;;;;;;15.94;60.63;99199.78;5133820;27;40936;-75
2022/08/30 05:31:03;;;;;;;1.83;1.43;;;;;;;16.07;60.14;99205.00;5132115;27;40631;-81
2022/08/30 05:33:30;;;;;;;1.90;1.53;;;;;;;16.27;59.77;99208.75;5132164;27;41630;-84
2022/08/30 05:35:58;;;;;;;3.00;2.00;;;;;;;16.42;59.38;99204.84;5132443;27;42394;-76
2022/08/30 05:38:26;;;;;;;2.67;2.00;;;;;;;16.61;59.06;99198.84;5132171;27;39069;-81
2022/08/30 05:40:55;;;;;;;3.07;2.00;;;;;;;16.80;58.59;99197.25;5132681;27;41845;-77
2022/08/30 05:43:22;;;;;;;2.40;1.87;;;;;;;16.94;58.93;99203.28;5114940;27;43442;-79
2022/08/30 05:45:59;;;;;;;4.10;2.30;;;;;;;17.00;59.03;99208.97;5133488;27;42977;-77
2022/08/30 05:48:27;;;;;;;2.40;1.70;;;;;;;17.06;58.55;99208.44;5115191;27;39990;-77
2022/08/30 05:51:03;;;;;;;3.67;2.00;;;;;;;17.14;58.72;99208.66;5132616;27;41721;-77
2022/08/30 05:53:31;;;;;;;2.67;1.83;;;;;;;17.22;58.32;99210.69;5133315;27;43533;-77
2022/08/30 05:56:01;;;;;;;2.50;2.00;;;;;;;17.33;58.31;99215.97;5131980;27;42063;-79
2022/08/30 05:58:30;;;;;;;2.17;1.70;;;;;;;17.40;57.89;99214.50;5131412;27;41331;-77
2022/08/30 06:00:57;;;;;;;2.10;1.90;;;;;;;17.53;57.81;99220.50;5132186;27;41829;-77
2022/08/30 06:03:26;;;;;;;4.17;2.33;;;;;;;17.72;57.26;99216.28;5131745;27;44246;-76
2022/08/30 06:05:54;;;;;;;2.00;1.70;;;;;;;18.15;56.43;99227.66;5132122;27;41125;-79
2022/08/30 06:08:22;;;;;;;3.43;1.83;;;;;;;18.78;54.89;99239.03;5131768;27;39525;-77
2022/08/30 06:10:50;;;;;;;3.33;2.13;;;;;;;19.34;52.83;99235.66;5135961;27;41750;-78
2022/08/30 06:13:21;;;;;;;2.93;1.80;;;;;;;19.56;52.85;99242.59;5118114;27;41888;-80
2022/08/30 06:15:49;;;;;;;2.87;1.83;;;;;;;19.58;52.31;99246.84;5137263;27;41930;-80
2022/08/30 06:18:17;;;;;;;3.23;2.27;;;;;;;19.52;51.92;99230.47;5135346;27;40856;-76
2022/08/30 06:20:47;;;;;;;3.50;2.30;;;;;;;19.77;51.39;99245.13;5136692;27;41611;-78
2022/08/30 06:23:16;;;;;;;4.27;1.90;;;;;;;20.14;50.89;99247.88;5134607;27;42053;-77
2022/08/30 06:25:44;;;;;;;2.77;1.77;;;;;;;20.44;49.89;99261.94;5135263;27;41411;-81
2022/08/30 06:28:12;;;;;;;3.73;1.87;;;;;;;20.25;49.41;99218.94;5117355;27;41309;-77
2022/08/30 06:30:43;;;;;;;2.77;1.80;;;;;;;20.42;49.38;99269.28;5134455;27;41814;-80
2022/08/30 06:33:11;;;;;;;3.03;1.90;;;;;;;20.47;49.36;99270.69;5101069;27;41571;-82
2022/08/30 06:35:39;;;;;;;2.63;1.63;;;;;;;20.33;49.47;99254.00;5136888;27;42261;-83
2022/08/30 06:38:06;;;;;;;2.20;1.80;;;;;;;20.42;50.21;99269.28;5117448;27;39065;-82
2022/08/30 06:40:36;;;;;;;1.97;1.53;;;;;;;20.43;50.26;99260.22;5134955;27;41742;-82
2022/08/30 06:43:04;;;;;;;2.83;1.63;;;;;;;20.50;50.04;99265.88;5128618;27;42004;-82
2022/08/30 06:45:33;;;;;;;1.90;1.40;;;;;;;20.54;50.06;99266.41;5136108;27;42995;-83
2022/08/30 06:48:05;;;;;;;2.13;1.40;;;;;;;20.63;50.24;99270.91;5134264;27;40073;-82
2022/08/30 06:50:33;;;;;;;2.10;1.90;;;;;;;20.73;49.54;99271.72;5135294;27;44166;-82
2022/08/30 06:53:04;;;;;;;1.90;1.57;;;;;;;20.89;49.51;99271.91;5116789;27;41424;-81
2022/08/30 06:55:32;;;;;;;4.50;2.00;;;;;;;20.99;48.62;99261.91;5131731;27;43006;-84
2022/08/30 06:58:00;;;;;;;4.23;2.30;;;;;;;21.22;48.35;99283.03;5133705;27;40077;-83
2022/08/30 07:00:28;;;;;;;4.27;2.07;;;;;;;21.22;48.67;99274.97;5135140;27;41985;-83
2022/08/30 07:02:56;;;;;;;3.57;2.00;;;;;;;21.37;48.68;99278.81;5133340;27;41496;-81
2022/08/30 07:05:25;;;;;;;3.10;1.97;;;;;;;21.44;49.28;99283.44;5134366;27;43193;-82
2022/08/30 07:07:53;;;;;;;3.67;1.87;;;;;;;21.49;48.59;99258.72;5116361;27;40897;-87
2022/08/30 07:10:22;;;;;;;2.70;1.83;;;;;;;21.73;48.01;99272.41;5134421;27;41853;-81
2022/08/30 07:12:49;;;;;;;2.83;1.70;;;;;;;22.18;48.26;99277.63;5133286;27;43157;-79
2022/08/30 07:15:21;;;;;;;4.80;1.90;;;;;;;22.49;47.37;99280.69;5134327;27;41563;-81
2022/08/30 07:20:38;;;;;;;3.83;2.03;;;;;;;22.67;46.90;99277.03;5131969;27;42701;-79
2022/08/30 07:23:06;;;;;;;3.47;1.87;;;;;;;22.70;46.83;99257.81;5116007;27;44276;-79
2022/08/30 07:25:33;;;;;;;3.37;1.77;;;;;;;22.94;46.31;99279.53;5116880;27;41532;-87
2022/08/30 07:28:01;;;;;;;5.03;2.03;;;;;;;23.08;45.85;99281.59;5116244;27;39106;-80
2022/08/30 07:30:30;;;;;;;4.50;2.37;;;;;;;23.15;46.88;99277.22;5135280;27;41941;-82
2022/08/30 07:32:58;;;;;;;3.00;1.90;;;;;;;23.26;47.12;99274.19;5134381;27;43553;-82
2022/08/30 07:35:26;;;;;;;3.43;1.83;;;;;;;23.45;46.44;99277.63;5133733;27;41378;-79
2022/08/30 07:37:55;;;;;;;5.00;2.50;;;;;;;23.65;45.93;99273.59;5134116;27;42448;-83
2022/08/30 07:40:23;;;;;;;3.63;1.97;;;;;;;23.95;46.22;99262.09;5133479;27;41962;-80
2022/08/30 07:42:51;;;;;;;3.40;2.23;;;;;;;24.46;44.90;99278.09;5132881;27;43269;-80
2022/08/30 07:45:19;;;;;;;3.27;2.40;;;;;;;24.91;43.96;99293.63;5133618;27;41755;-80
2022/08/30 07:47:47;;;;;;;3.03;2.23;;;;;;;25.17;43.31;99288.78;5133681;27;40972;-79
2022/08/30 07:50:14;;;;;;;3.50;2.03;;;;;;;25.36;42.87;99298.31;5133776;27;40626;-80
2022/08/30 07:52:43;;;;;;;5.73;1.73;;;;;;;25.48;42.89;99286.03;5116097;27;41939;-84
2022/08/30 07:55:12;;;;;;;3.23;2.03;;;;;;;25.96;43.43;99295.69;5134807;27;41930;-80
2022/08/30 07:57:39;;;;;;;3.70;2.23;;;;;;;26.36;42.32;99299.06;5115387;27;39018;-81
2022/08/30 08:00:08;;;;;;;2.83;2.00;;;;;;;26.52;41.11;99300.75;5134473;27;42670;-86
2022/08/30 08:02:41;;;;;;;4.17;2.30;;;;;;;26.71;40.50;99309.19;5131250;27;43695;-78
2022/08/30 08:05:10;;;;;;;4.30;2.50;;;;;;;27.10;40.98;99310.75;5133184;27;41067;-80
2022/08/30 08:07:38;;;;;;;2.47;2.10;;;;;;;27.70;38.59;99318.56;5132783;27;40156;-82
2022/08/30 08:10:06;;;;;;;3.47;2.57;;;;;;;28.26;37.79;99328.75;5116392;27;40919;-81
2022/08/30 08:12:37;;;;;;;4.47;2.20;;;;;;;28.93;37.02;99332.53;5132399;27;43125;-81
2022/08/30 08:15:05;;;;;;;3.77;2.83;;;;;;;29.85;35.42;99337.50;5115904;27;41243;-79
2022/08/30 08:17:33;;;;;;;5.47;2.80;;;;;;;30.64;34.21;99353.97;5133788;27;40756;-78
2022/08/30 08:20:01;;;;;;;4.33;2.60;;;;;;;30.92;32.81;99361.88;5132578;27;41095;-83
2022/08/30 08:22:29;;;;;;;6.50;3.10;;;;;;;31.58;31.75;99372.59;5132626;27;42721;-78
2022/08/30 08:24:56;;;;;;;3.47;2.70;;;;;;;32.16;31.83;99364.22;5133089;27;42248;-81
2022/08/30 08:27:24;;;;;;;4.27;2.40;;;;;;;32.72;31.23;99357.91;5115007;27;41044;-80
2022/08/30 08:29:54;;;;;;;3.80;2.17;;;;;;;33.77;30.11;99372.28;5132824;27;43129;-81
2022/08/30 08:32:21;;;;;;;3.33;2.50;;;;;;;35.10;28.07;99393.78;5114116;27;41612;-81
2022/08/30 08:34:49;;;;;;;5.93;3.30;;;;;;;36.12;26.10;99407.72;5133406;27;43149;-82
2022/08/30 08:37:17;;;;;;;3.22;2.47;;;;;;;37.09;24.93;99401.91;5133686;27;39993;-82
2022/08/30 08:39:45;;;;;;;3.72;2.85;;;;;;;37.73;23.73;99405.81;5132882;27;42674;-82
2022/08/30 08:42:24;;;;;;;2.38;2.00;;;;;;;37.86;24.16;99402.63;5133467;27;42937;-81
2022/08/30 08:45:01;;;;;;;3.20;2.53;;;;;;;37.35;24.07;99402.00;5115813;27;40515;-83
2022/08/30 08:47:38;;;;;;;5.20;2.55;;;;;;;36.84;24.64;99389.41;5132346;27;38981;-80
2022/08/30 08:50:11;;;;;;;6.60;3.00;;;;;;;36.24;25.35;99387.28;5130251;27;41584;-81
2022/08/30 08:55:34;;;;;;;2.90;2.23;;;;;;;36.09;25.75;99377.91;5130246;27;42246;-81
2022/08/30 08:58:02;;;;;;;2.40;2.20;;;;;;;36.32;24.99;99356.56;5114118;27;40472;-79
2022/08/30 09:00:32;;;;;;;4.22;2.65;;;;;;;36.65;25.44;99382.44;5132446;27;43002;-80
2022/08/30 09:03:03;;;;;;;3.40;2.47;;;;;;;36.69;25.38;99370.69;5114558;27;41830;-79
2022/08/30 09:05:38;;;;;;;3.83;2.23;;;;;;;36.41;25.25;99369.91;5115119;27;41301;-81
2022/08/30 09:08:09;;;;;;;2.87;2.43;;;;;;;36.47;25.12;99380.81;5131113;27;38916;-80
2022/08/30 09:10:39;;;;;;;4.03;2.50;;;;;;;36.19;24.74;99367.88;5130827;27;42660;-80
2022/08/30 09:13:06;;;;;;;4.97;3.00;;;;;;;35.94;25.10;99379.31;5131622;27;43088;-78
2022/08/30 09:15:36;;;;;;;6.60;2.80;;;;;;;35.48;26.33;99368.47;5114794;27;43905;-79
2022/08/30 09:18:05;;;;;;;3.73;2.33;;;;;;;35.26;26.92;99357.25;5131461;27;41561;-78
2022/08/30 09:20:35;;;;;;;3.73;2.73;;;;;;;35.00;26.93;99368.75;5133495;27;41569;-81
2022/08/30 09:23:21;;;;;;;2.73;2.27;;;;;;;34.43;27.30;99360.28;5132495;27;42572;-81
2022/08/30 09:25:52;;;;;;;4.83;2.80;;;;;;;33.91;27.85;99356.44;5131835;27;41426;-79
2022/08/30 09:28:24;;;;;;;7.00;3.33;;;;;;;33.64;28.60;99333.97;5113571;27;41202;-78
2022/08/30 09:31:04;;;;;;;2.60;2.37;;;;;;;33.64;29.09;99339.47;5130035;27;42509;-78
2022/08/30 09:33:32;;;;;;;4.43;2.73;;;;;;;33.76;28.62;99338.47;5131167;27;42968;-81
2022/08/30 09:36:14;;;;;;;4.00;3.20;;;;;;;33.98;27.77;99340.69;5131515;27;42658;-80
2022/08/30 09:38:42;;;;;;;4.17;2.63;;;;;;;34.13;27.76;99338.31;5130035;27;39927;-81
2022/08/30 09:41:36;;;;;;;4.60;2.50;;;;;;;34.22;28.72;99329.50;5114490;27;41714;-83
2022/08/30 09:44:08;;;;;;;3.97;2.57;;;;;;;34.41;28.46;99323.91;5108737;28;42689;-80
2022/08/30 09:46:43;;;;;;;3.67;2.77;;;;;;;34.13;28.31;99321.81;5096121;27;41192;-82
2022/08/30 09:49:29;;;;;;;3.03;2.20;;;;;;;33.93;28.18;99321.31;5128437;27;40755;-81
2022/08/30 09:52:10;;;;;;;6.87;2.53;;;;;;;33.90;28.20;99322.59;5113961;27;41575;-85
2022/08/30 09:54:47;;;;;;;3.50;2.50;;;;;;;33.78;28.65;99306.09;5128786;27;42568;-81
2022/08/30 09:57:24;;;;;;;4.80;2.50;;;;;;;33.66;28.53;99316.19;5129364;27;42242;-84
2022/08/30 10:00:04;;;;;;;3.80;2.67;;;;;;;33.64;28.55;99296.34;5114459;27;39064;-83
2022/08/30 10:02:59;;;;;;;4.47;2.40;;;;;;;33.67;27.55;99311.53;5114417;27;40786;-83
2022/08/30 10:05:35;;;;;;;4.23;2.73;;;;;;;33.23;27.93;99272.41;5131801;27;43830;-82
2022/08/30 10:08:12;;;;;;;2.80;2.60;;;;;;;33.34;27.55;99312.84;5113311;27;41726;-80
2022/08/30 10:10:49;;;;;;;4.00;3.23;;;;;;;33.23;28.36;99299.03;5128081;27;40836;-81
2022/08/30 10:13:41;;;;;;;4.40;2.37;;;;;;;33.22;29.11;99291.88;5131752;27;42968;-81
2022/08/30 10:16:21;;;;;;;2.43;2.23;;;;;;;33.34;27.89;99295.53;5113594;27;42926;-86
2022/08/30 10:18:58;;;;;;;4.03;2.57;;;;;;;33.14;28.16;99295.75;5093567;28;41940;-82
2022/08/30 10:21:33;;;;;;;3.30;2.20;;;;;;;32.84;29.03;99290.22;5095455;27;38793;-82
2022/08/30 10:24:05;;;;;;;2.60;2.03;;;;;;;32.52;28.18;99259.31;5113122;27;42485;-83
2022/08/30 10:26:37;;;;;;;5.07;2.33;;;;;;;32.92;28.03;99283.56;5113480;27;43287;-83
2022/08/30 10:29:11;;;;;;;3.03;2.27;;;;;;;33.85;27.33;99260.13;5129465;27;42337;-81
2022/08/30 10:31:43;;;;;;;2.60;2.03;;;;;;;34.68;26.08;99280.22;5129137;27;39990;-80
2022/08/30 10:34:17;;;;;;;4.27;2.20;;;;;;;35.29;25.87;99283.25;5130714;27;40643;-82
2022/08/30 10:36:48;;;;;;;3.73;2.30;;;;;;;35.64;25.02;99284.97;5128056;27;42756;-83
2022/08/30 10:39:22;;;;;;;3.73;2.80;;;;;;;35.53;25.28;99283.13;5128498;27;42342;-77
2022/08/30 10:41:53;;;;;;;2.10;1.90;;;;;;;35.57;26.12;99267.78;5129654;27;38751;-78
2022/08/30 10:44:26;;;;;;;2.73;2.20;;;;;;;36.31;25.12;99279.56;5127526;27;41706;-78
2022/08/30 10:47:05;;;;;;;2.60;2.03;;;;;;;37.34;23.37;99287.03;5129848;27;41693;-78
2022/08/30 10:49:37;;;;;;;3.60;2.20;;;;;;;38.22;21.08;99312.53;5127429;27;42322;-77
2022/08/30 10:52:18;;;;;;;1.88;1.67;;;;;;;38.95;20.67;99307.25;5128950;27;40266;-79
2022/08/30 10:54:50;;;;;;;2.28;1.88;;;;;;;39.17;20.76;99307.09;5130214;27;41797;-81
2022/08/30 10:57:18;;;;;;;2.58;2.28;;;;;;;39.04;19.90;99319.50;5132405;27;42197;-83
2022/08/30 10:59:51;;;;;;;2.45;2.25;;;;;;;38.80;20.47;99308.81;5133565;27;43311;-82
2022/08/30 11:02:35;;;;;;;6.60;2.47;;;;;;;38.96;20.97;99306.09;5115811;27;41023;-82
2022/08/30 11:05:23;;;;;;;4.05;2.60;;;;;;;39.33;20.15;99301.28;5133764;27;41789;-79
2022/08/30 11:08:02;;;;;;;2.22;2.03;;;;;;;39.59;20.03;99298.63;5132476;27;42710;-88
2022/08/30 11:10:43;;;;;;;2.63;2.40;;;;;;;39.99;19.32;99304.25;5117640;27;42528;-82
2022/08/30 11:13:15;;;;;;;3.30;2.20;;;;;;;40.17;19.02;99309.25;5116785;27;38778;-85
2022/08/30 11:15:57;;;;;;;2.20;2.00;;;;;;;40.48;18.82;99300.91;5134435;27;41829;-80
2022/08/30 11:18:29;;;;;;;2.28;2.08;;;;;;;40.85;18.34;99298.63;5133826;27;43504;-83
2022/08/30 11:21:19;;;;;;;3.67;2.05;;;;;;;41.23;18.28;99285.16;5117111;27;41350;-83
2022/08/30 11:24:03;;;;;;;3.80;2.33;;;;;;;41.40;19.15;99293.97;5133361;27;40050;-79
2022/08/30 11:27:09;;;;;;;5.15;2.00;;;;;;;41.75;18.24;99292.09;5130678;27;42239;-77
2022/08/30 11:29:42;;;;;;;5.55;2.20;;;;;;;41.83;18.48;99288.69;5133311;27;44312;-82
2022/08/30 11:32:57;;;;;;;3.67;2.67;;;;;;;41.85;18.58;99283.66;5132341;27;42378;-87
2022/08/30 11:35:42;;;;;;;3.15;2.88;;;;;;;42.14;17.69;99279.00;5133605;27;40957;-81
2022/08/30 11:38:21;;;;;;;2.33;2.08;;;;;;;42.73;16.20;99277.03;5131840;27;42374;-81
2022/08/30 11:40:52;;;;;;;3.22;2.30;;;;;;;43.03;16.22;99284.22;5116149;27;43285;-81
2022/08/30 11:43:55;;;;;;;2.17;1.85;;;;;;;43.39;16.22;99290.16;5133928;27;41537;-82
2022/08/30 11:46:38;;;;;;;3.60;2.03;;;;;;;44.28;16.72;99289.03;5115806;27;38864;-82
2022/08/30 11:49:46;;;;;;;2.33;2.13;;;;;;;44.34;15.81;99290.63;5133662;27;41709;-83
2022/08/30 11:52:29;;;;;;;2.55;2.35;;;;;;;44.28;16.32;99286.25;5132031;27;42489;-79
2022/08/30 11:55:24;;;;;;;2.10;1.90;;;;;;;44.37;15.49;99292.84;5115210;27;42653;-80
2022/08/30 11:58:02;;;;;;;2.40;2.20;;;;;;;44.57;15.31;99285.19;5107934;27;40815;-79